sensor_id;sensor_type;location;lat;lon;timestamp;pressure;altitude;pressure_sealevel;temperature;humidity
64876;BME280;51369;49.862;9.908;2023-05-14T00:02:19;98440.28;;;11.77;74.21
64876;BME280;51369;49.862;9.908;2023-05-14T00:04:45;98438.66;;;11.72;74.75
64876;BME280;51369;49.862;9.908;2023-05-14T00:07:10;98443.34;;;11.69;74.65
64876;BME280;51369;49.862;9.908;2023-05-14T00:09:36;98450.72;;;11.65;74.18
64876;BME280;51369;49.862;9.908;2023-05-14T00:12:01;98432.94;;;11.60;73.65
64876;BME280;51369;49.862;9.908;2023-05-14T00:14:26;98435.78;;;11.57;74.55
64876;BME280;51369;49.862;9.908;2023-05-14T00:16:52;98441.41;;;11.52;74.60
64876;BME280;51369;49.862;9.908;2023-05-14T00:19:17;98438.78;;;11.51;75.31
64876;BME280;51369;49.862;9.908;2023-05-14T00:21:42;98427.06;;;11.50;74.69
64876;BME280;51369;49.862;9.908;2023-05-14T00:24:08;98438.78;;;11.51;74.08
64876;BME280;51369;49.862;9.908;2023-05-14T00:26:33;98429.84;;;11.49;74.17
64876;BME280;51369;49.862;9.908;2023-05-14T00:28:58;98423.63;;;11.47;75.17
64876;BME280;51369;49.862;9.908;2023-05-14T00:31:24;98430.88;;;11.46;75.45
64876;BME280;51369;49.862;9.908;2023-05-14T00:33:49;98427.34;;;11.44;74.69
64876;BME280;51369;49.862;9.908;2023-05-14T00:36:15;98421.22;;;11.40;75.33
64876;BME280;51369;49.862;9.908;2023-05-14T00:38:40;98425.88;;;11.37;74.92
64876;BME280;51369;49.862;9.908;2023-05-14T00:41:06;98420.69;;;11.32;74.49
64876;BME280;51369;49.862;9.908;2023-05-14T00:43:31;98419.06;;;11.28;74.48
64876;BME280;51369;49.862;9.908;2023-05-14T00:45:57;98420.22;;;11.23;75.54
64876;BME280;51369;49.862;9.908;2023-05-14T00:48:23;98416.78;;;11.19;75.25
64876;BME280;51369;49.862;9.908;2023-05-14T00:50:49;98421.44;;;11.16;74.53
64876;BME280;51369;49.862;9.908;2023-05-14T00:53:15;98418.06;;;11.11;75.48
64876;BME280;51369;49.862;9.908;2023-05-14T00:55:42;98413.72;;;11.06;75.52
64876;BME280;51369;49.862;9.908;2023-05-14T00:58:12;98424.75;;;11.02;74.81
64876;BME280;51369;49.862;9.908;2023-05-14T01:00:39;98418.59;;;10.98;74.70
64876;BME280;51369;49.862;9.908;2023-05-14T01:03:05;98424.06;;;10.97;74.98
64876;BME280;51369;49.862;9.908;2023-05-14T01:05:52;98419.81;;;10.91;76.19
64876;BME280;51369;49.862;9.908;2023-05-14T01:08:30;98419.88;;;10.90;75.57
64876;BME280;51369;49.862;9.908;2023-05-14T01:11:16;98414.53;;;10.88;76.64
64876;BME280;51369;49.862;9.908;2023-05-14T01:16:32;98417.38;;;10.85;75.78
64876;BME280;51369;49.862;9.908;2023-05-14T01:18:58;98411.22;;;10.82;75.98
64876;BME280;51369;49.862;9.908;2023-05-14T01:21:33;98399.66;;;10.78;76.12
64876;BME280;51369;49.862;9.908;2023-05-14T01:24:00;98403.31;;;10.77;76.57
64876;BME280;51369;49.862;9.908;2023-05-14T01:26:26;98395.28;;;10.75;75.80
64876;BME280;51369;49.862;9.908;2023-05-14T01:28:53;98392.78;;;10.71;76.31
64876;BME280;51369;49.862;9.908;2023-05-14T01:31:24;98393.84;;;10.67;75.89
64876;BME280;51369;49.862;9.908;2023-05-14T01:33:53;98397.50;;;10.66;76.45
64876;BME280;51369;49.862;9.908;2023-05-14T01:36:21;98396.75;;;10.62;75.84
64876;BME280;51369;49.862;9.908;2023-05-14T01:38:48;98387.03;;;10.58;75.60
64876;BME280;51369;49.862;9.908;2023-05-14T01:41:15;98392.56;;;10.55;76.25
64876;BME280;51369;49.862;9.908;2023-05-14T01:43:43;98396.31;;;10.51;76.45
64876;BME280;51369;49.862;9.908;2023-05-14T01:46:08;98390.19;;;10.48;76.58
64876;BME280;51369;49.862;9.908;2023-05-14T01:48:34;98392.13;;;10.44;76.68
64876;BME280;51369;49.862;9.908;2023-05-14T01:50:59;98391.38;;;10.40;76.61
64876;BME280;51369;49.862;9.908;2023-05-14T01:53:26;98395.13;;;10.38;77.51
64876;BME280;51369;49.862;9.908;2023-05-14T01:55:51;98388.97;;;10.34;77.68
64876;BME280;51369;49.862;9.908;2023-05-14T01:58:17;98394.41;;;10.33;77.87
64876;BME280;51369;49.862;9.908;2023-05-14T02:00:42;98388.16;;;10.32;77.80
64876;BME280;51369;49.862;9.908;2023-05-14T02:03:07;98383.69;;;10.31;76.93
64876;BME280;51369;49.862;9.908;2023-05-14T02:05:33;98393.59;;;10.31;77.04
64876;BME280;51369;49.862;9.908;2023-05-14T02:07:58;98390.09;;;10.29;76.97
64876;BME280;51369;49.862;9.908;2023-05-14T02:10:24;98377.59;;;10.26;77.78
64876;BME280;51369;49.862;9.908;2023-05-14T02:12:50;98384.81;;;10.26;76.69
64876;BME280;51369;49.862;9.908;2023-05-14T02:15:15;98387.59;;;10.24;77.75
64876;BME280;51369;49.862;9.908;2023-05-14T02:17:41;98383.13;;;10.23;76.75
64876;BME280;51369;49.862;9.908;2023-05-14T02:20:06;98380.56;;;10.20;76.78
64876;BME280;51369;49.862;9.908;2023-05-14T02:22:34;98386.84;;;10.19;77.49
64876;BME280;51369;49.862;9.908;2023-05-14T02:24:59;98381.53;;;10.18;77.57
64876;BME280;51369;49.862;9.908;2023-05-14T02:27:25;98380.78;;;10.14;76.85
64876;BME280;51369;49.862;9.908;2023-05-14T02:29:51;98381.72;;;10.13;77.66
64876;BME280;51369;49.862;9.908;2023-05-14T02:32:17;98378.25;;;10.09;76.66
64876;BME280;51369;49.862;9.908;2023-05-14T02:34:42;98381.91;;;10.08;77.20
64876;BME280;51369;49.862;9.908;2023-05-14T02:37:07;98381.97;;;10.07;76.85
64876;BME280;51369;49.862;9.908;2023-05-14T02:39:33;98379.28;;;10.07;77.81
64876;BME280;51369;49.862;9.908;2023-05-14T02:41:58;98380.22;;;10.06;77.37
64876;BME280;51369;49.862;9.908;2023-05-14T02:44:24;98379.28;;;10.07;78.18
64876;BME280;51369;49.862;9.908;2023-05-14T02:46:49;98381.91;;;10.08;77.66
64876;BME280;51369;49.862;9.908;2023-05-14T02:49:14;98380.91;;;10.11;77.69
64876;BME280;51369;49.862;9.908;2023-05-14T02:51:39;98378.94;;;10.15;77.86
64876;BME280;51369;49.862;9.908;2023-05-14T02:54:05;98377.00;;;10.18;78.01
64876;BME280;51369;49.862;9.908;2023-05-14T02:56:31;98377.72;;;10.23;78.81
64876;BME280;51369;49.862;9.908;2023-05-14T02:58:56;98374.91;;;10.26;79.27
64876;BME280;51369;49.862;9.908;2023-05-14T03:01:22;98378.28;;;10.31;79.06
64876;BME280;51369;49.862;9.908;2023-05-14T03:03:47;98370.00;;;10.36;78.41
64876;BME280;51369;49.862;9.908;2023-05-14T03:06:13;98378.75;;;10.41;79.42
64876;BME280;51369;49.862;9.908;2023-05-14T03:08:38;98379.38;;;10.48;78.56
64876;BME280;51369;49.862;9.908;2023-05-14T03:11:04;98373.78;;;10.52;78.50
64876;BME280;51369;49.862;9.908;2023-05-14T03:13:29;98373.59;;;10.57;79.21
64876;BME280;51369;49.862;9.908;2023-05-14T03:15:54;98374.28;;;10.62;78.54
64876;BME280;51369;49.862;9.908;2023-05-14T03:18:21;98377.66;;;10.67;77.92
64876;BME280;51369;49.862;9.908;2023-05-14T03:20:46;98379.22;;;10.72;78.92
64876;BME280;51369;49.862;9.908;2023-05-14T03:23:12;98375.38;;;10.78;77.44
64876;BME280;51369;49.862;9.908;2023-05-14T03:25:39;98374.28;;;10.82;77.38
64876;BME280;51369;49.862;9.908;2023-05-14T03:28:04;98375.84;;;10.88;78.57
64876;BME280;51369;49.862;9.908;2023-05-14T03:30:29;98369.28;;;10.93;78.36
64876;BME280;51369;49.862;9.908;2023-05-14T03:32:55;98378.13;;;10.97;77.96
64876;BME280;51369;49.862;9.908;2023-05-14T03:35:22;98372.53;;;11.01;77.19
64876;BME280;51369;49.862;9.908;2023-05-14T03:37:47;98371.44;;;11.05;78.22
64876;BME280;51369;49.862;9.908;2023-05-14T03:40:13;98370.38;;;11.09;77.66
64876;BME280;51369;49.862;9.908;2023-05-14T03:42:38;98372.94;;;11.13;77.36
64876;BME280;51369;49.862;9.908;2023-05-14T03:45:04;98367.38;;;11.16;78.17
64876;BME280;51369;49.862;9.908;2023-05-14T03:47:30;98372.66;;;11.19;77.79
64876;BME280;51369;49.862;9.908;2023-05-14T03:49:56;98368.06;;;11.21;78.17
64876;BME280;51369;49.862;9.908;2023-05-14T03:52:21;98366.09;;;11.24;77.31
64876;BME280;51369;49.862;9.908;2023-05-14T03:54:46;98365.16;;;11.25;77.01
64876;BME280;51369;49.862;9.908;2023-05-14T03:57:13;98361.44;;;11.28;77.92
64876;BME280;51369;49.862;9.908;2023-05-14T03:59:39;98365.88;;;11.29;77.68
64876;BME280;51369;49.862;9.908;2023-05-14T04:02:05;98371.16;;;11.32;77.47
64876;BME280;51369;49.862;9.908;2023-05-14T04:04:30;98356.69;;;11.33;77.16
64876;BME280;51369;49.862;9.908;2023-05-14T04:06:55;98371.88;;;11.35;77.71
64876;BME280;51369;49.862;9.908;2023-05-14T04:09:20;98367.28;;;11.37;77.90
64876;BME280;51369;49.862;9.908;2023-05-14T04:11:46;98366.28;;;11.40;78.05
64876;BME280;51369;49.862;9.908;2023-05-14T04:14:11;98370.59;;;11.44;77.72
64876;BME280;51369;49.862;9.908;2023-05-14T04:16:37;98367.75;;;11.47;77.62
64876;BME280;51369;49.862;9.908;2023-05-14T04:19:02;98369.34;;;11.51;77.86
64876;BME280;51369;49.862;9.908;2023-05-14T04:21:31;98364.69;;;11.55;78.24
64876;BME280;51369;49.862;9.908;2023-05-14T04:23:56;98364.53;;;11.58;78.20
64876;BME280;51369;49.862;9.908;2023-05-14T04:26:21;98367.03;;;11.62;78.09
64876;BME280;51369;49.862;9.908;2023-05-14T04:28:47;98366.00;;;11.65;78.10
64876;BME280;51369;49.862;9.908;2023-05-14T04:31:13;98369.59;;;11.65;78.30
64876;BME280;51369;49.862;9.908;2023-05-14T04:33:39;98369.50;;;11.67;76.96
64876;BME280;51369;49.862;9.908;2023-05-14T04:36:05;98366.72;;;11.68;77.05
64876;BME280;51369;49.862;9.908;2023-05-14T04:38:31;98369.38;;;11.70;78.00
64876;BME280;51369;49.862;9.908;2023-05-14T04:40:57;98365.66;;;11.72;77.85
64876;BME280;51369;49.862;9.908;2023-05-14T04:43:22;98372.81;;;11.73;76.90
64876;BME280;51369;49.862;9.908;2023-05-14T04:45:47;98369.97;;;11.77;78.00
64876;BME280;51369;49.862;9.908;2023-05-14T04:48:13;98365.31;;;11.80;77.69
64876;BME280;51369;49.862;9.908;2023-05-14T04:50:38;98369.69;;;11.83;78.04
64876;BME280;51369;49.862;9.908;2023-05-14T04:53:04;98368.69;;;11.85;78.20
64876;BME280;51369;49.862;9.908;2023-05-14T04:55:29;98371.22;;;11.88;78.09
64876;BME280;51369;49.862;9.908;2023-05-14T04:57:55;98368.38;;;11.91;78.08
64876;BME280;51369;49.862;9.908;2023-05-14T05:00:20;98367.34;;;11.94;77.64
64876;BME280;51369;49.862;9.908;2023-05-14T05:02:46;98367.22;;;11.97;77.83
64876;BME280;51369;49.862;9.908;2023-05-14T05:05:12;98365.31;;;11.99;77.32
64876;BME280;51369;49.862;9.908;2023-05-14T05:07:37;98366.09;;;12.01;77.76
64876;BME280;51369;49.862;9.908;2023-05-14T05:10:03;98365.00;;;12.05;77.45
64876;BME280;51369;49.862;9.908;2023-05-14T05:12:28;98367.56;;;12.08;77.55
64876;BME280;51369;49.862;9.908;2023-05-14T05:14:57;98356.59;;;12.11;78.04
64876;BME280;51369;49.862;9.908;2023-05-14T05:17:23;98368.09;;;12.15;77.03
64876;BME280;51369;49.862;9.908;2023-05-14T05:19:49;98371.53;;;12.18;77.59
64876;BME280;51369;49.862;9.908;2023-05-14T05:22:15;98363.19;;;12.23;77.31
64876;BME280;51369;49.862;9.908;2023-05-14T05:24:40;98361.22;;;12.26;76.97
64876;BME280;51369;49.862;9.908;2023-05-14T05:27:06;98362.81;;;12.30;77.70
64876;BME280;51369;49.862;9.908;2023-05-14T05:29:31;98375.25;;;12.34;77.30
64876;BME280;51369;49.862;9.908;2023-05-14T05:31:57;98369.59;;;12.39;76.76
64876;BME280;51369;49.862;9.908;2023-05-14T05:34:23;98369.38;;;12.44;77.51
64876;BME280;51369;49.862;9.908;2023-05-14T05:36:48;98371.84;;;12.48;76.23
64876;BME280;51369;49.862;9.908;2023-05-14T05:39:13;98371.63;;;12.53;76.75
64876;BME280;51369;49.862;9.908;2023-05-14T05:41:39;98378.47;;;12.60;76.89
64876;BME280;51369;49.862;9.908;2023-05-14T05:44:05;98376.41;;;12.65;76.66
64876;BME280;51369;49.862;9.908;2023-05-14T05:46:30;98376.97;;;12.71;76.90
64876;BME280;51369;49.862;9.908;2023-05-14T05:48:55;98377.63;;;12.77;76.81
64876;BME280;51369;49.862;9.908;2023-05-14T05:51:21;98369.25;;;12.81;76.49
64876;BME280;51369;49.862;9.908;2023-05-14T05:53:46;98372.59;;;12.86;76.56
64876;BME280;51369;49.862;9.908;2023-05-14T05:56:12;98384.88;;;12.93;76.47
64876;BME280;51369;49.862;9.908;2023-05-14T05:58:37;98375.47;;;13.00;76.06
64876;BME280;51369;49.862;9.908;2023-05-14T06:01:02;98372.59;;;13.03;75.12
64876;BME280;51369;49.862;9.908;2023-05-14T06:03:28;98368.69;;;13.09;74.99
64876;BME280;51369;49.862;9.908;2023-05-14T06:05:53;98372.91;;;13.15;74.83
64876;BME280;51369;49.862;9.908;2023-05-14T06:08:18;98367.03;;;13.24;75.05
64876;BME280;51369;49.862;9.908;2023-05-14T06:10:44;98372.81;;;13.33;74.12
64876;BME280;51369;49.862;9.908;2023-05-14T06:13:11;98372.34;;;13.43;74.57
64876;BME280;51369;49.862;9.908;2023-05-14T06:15:36;98377.25;;;13.52;75.08
64876;BME280;51369;49.862;9.908;2023-05-14T06:18:02;98368.63;;;13.61;74.50
64876;BME280;51369;49.862;9.908;2023-05-14T06:20:27;98371.69;;;13.71;74.20
64876;BME280;51369;49.862;9.908;2023-05-14T06:22:53;98363.13;;;13.78;73.54
64876;BME280;51369;49.862;9.908;2023-05-14T06:25:18;98370.72;;;13.87;73.83
64876;BME280;51369;49.862;9.908;2023-05-14T06:27:43;98369.16;;;13.99;73.75
64876;BME280;51369;49.862;9.908;2023-05-14T06:30:09;98370.38;;;14.09;73.56
64876;BME280;51369;49.862;9.908;2023-05-14T06:32:35;98369.06;;;14.16;72.13
64876;BME280;51369;49.862;9.908;2023-05-14T06:35:00;98362.31;;;14.23;72.15
64876;BME280;51369;49.862;9.908;2023-05-14T06:37:26;98368.19;;;14.31;71.91
64876;BME280;51369;49.862;9.908;2023-05-14T06:39:51;98354.34;;;14.36;71.81
64876;BME280;51369;49.862;9.908;2023-05-14T06:42:17;98363.03;;;14.43;71.68
64876;BME280;51369;49.862;9.908;2023-05-14T06:44:43;98359.97;;;14.49;71.40
64876;BME280;51369;49.862;9.908;2023-05-14T06:47:09;98362.31;;;14.55;71.06
64876;BME280;51369;49.862;9.908;2023-05-14T06:49:34;98353.03;;;14.59;70.59
64876;BME280;51369;49.862;9.908;2023-05-14T06:52:00;98343.63;;;14.64;70.28
64876;BME280;51369;49.862;9.908;2023-05-14T06:54:26;98347.84;;;14.70;70.26
64876;BME280;51369;49.862;9.908;2023-05-14T06:56:52;98350.09;;;14.78;70.61
64876;BME280;51369;49.862;9.908;2023-05-14T06:59:18;98347.88;;;14.84;69.91
64876;BME280;51369;49.862;9.908;2023-05-14T07:01:43;98346.34;;;14.94;69.80
64876;BME280;51369;49.862;9.908;2023-05-14T07:04:09;98335.97;;;15.01;69.36
64876;BME280;51369;49.862;9.908;2023-05-14T07:06:34;98345.50;;;15.08;69.25
64876;BME280;51369;49.862;9.908;2023-05-14T07:09:00;98346.78;;;15.17;69.63
64876;BME280;51369;49.862;9.908;2023-05-14T07:11:26;98341.06;;;15.21;69.03
64876;BME280;51369;49.862;9.908;2023-05-14T07:13:51;98345.25;;;15.27;68.58
64876;BME280;51369;49.862;9.908;2023-05-14T07:16:16;98337.97;;;15.27;68.05
64876;BME280;51369;49.862;9.908;2023-05-14T07:18:43;98344.97;;;15.32;68.09
64876;BME280;51369;49.862;9.908;2023-05-14T07:21:10;98335.75;;;15.34;67.47
64876;BME280;51369;49.862;9.908;2023-05-14T07:23:36;98340.03;;;15.38;67.37
64876;BME280;51369;49.862;9.908;2023-05-14T07:26:04;98342.53;;;15.41;66.98
64876;BME280;51369;49.862;9.908;2023-05-14T07:28:30;98335.06;;;15.45;66.90
64876;BME280;51369;49.862;9.908;2023-05-14T07:30:56;98331.00;;;15.52;67.79
64876;BME280;51369;49.862;9.908;2023-05-14T07:33:21;98329.44;;;15.62;68.04
64876;BME280;51369;49.862;9.908;2023-05-14T07:35:47;98318.72;;;15.73;67.96
64876;BME280;51369;49.862;9.908;2023-05-14T07:38:12;98317.94;;;15.85;67.52
64876;BME280;51369;49.862;9.908;2023-05-14T07:40:38;98326.28;;;15.97;67.91
64876;BME280;51369;49.862;9.908;2023-05-14T07:43:03;98323.84;;;16.06;66.98
64876;BME280;51369;49.862;9.908;2023-05-14T07:45:29;98317.97;;;16.12;66.14
64876;BME280;51369;49.862;9.908;2023-05-14T07:47:54;98317.38;;;16.21;66.00
64876;BME280;51369;49.862;9.908;2023-05-14T07:50:20;98316.00;;;16.28;65.61
64876;BME280;51369;49.862;9.908;2023-05-14T07:52:46;98315.47;;;16.36;64.60
64876;BME280;51369;49.862;9.908;2023-05-14T07:55:11;98314.09;;;16.43;64.95
64876;BME280;51369;49.862;9.908;2023-05-14T07:57:37;98319.78;;;16.53;65.56
64876;BME280;51369;49.862;9.908;2023-05-14T08:00:03;98318.19;;;16.63;64.87
64876;BME280;51369;49.862;9.908;2023-05-14T08:02:37;98317.69;;;16.71;64.37
64876;BME280;51369;49.862;9.908;2023-05-14T08:05:03;98313.25;;;16.82;64.13
64876;BME280;51369;49.862;9.908;2023-05-14T08:07:29;98320.59;;;16.95;64.60
64876;BME280;51369;49.862;9.908;2023-05-14T08:09:55;98317.22;;;17.04;63.00
64876;BME280;51369;49.862;9.908;2023-05-14T08:12:20;98314.19;;;17.08;62.83
64876;BME280;51369;49.862;9.908;2023-05-14T08:14:46;98311.13;;;17.13;63.04
64876;BME280;51369;49.862;9.908;2023-05-14T08:17:11;98304.38;;;17.18;63.25
64876;BME280;51369;49.862;9.908;2023-05-14T08:19:36;98304.81;;;17.25;63.11
64876;BME280;51369;49.862;9.908;2023-05-14T08:22:02;98307.00;;;17.33;63.40
64876;BME280;51369;49.862;9.908;2023-05-14T08:24:28;98304.34;;;17.44;62.94
64876;BME280;51369;49.862;9.908;2023-05-14T08:26:54;98305.41;;;17.54;63.05
64876;BME280;51369;49.862;9.908;2023-05-14T08:29:20;98300.16;;;17.64;62.57
64876;BME280;51369;49.862;9.908;2023-05-14T08:31:45;98306.75;;;17.74;61.94
64876;BME280;51369;49.862;9.908;2023-05-14T08:34:11;98306.06;;;17.83;62.04
64876;BME280;51369;49.862;9.908;2023-05-14T08:36:37;98298.41;;;17.88;61.68
64876;BME280;51369;49.862;9.908;2023-05-14T08:39:02;98301.56;;;17.95;61.10
64876;BME280;51369;49.862;9.908;2023-05-14T08:41:28;98295.66;;;18.01;61.57
64876;BME280;51369;49.862;9.908;2023-05-14T08:44:06;98295.50;;;18.15;62.81
64876;BME280;51369;49.862;9.908;2023-05-14T08:46:35;98302.66;;;18.29;61.72
64876;BME280;51369;49.862;9.908;2023-05-14T08:49:20;98297.94;;;18.31;61.59
64876;BME280;51369;49.862;9.908;2023-05-14T08:51:49;98301.22;;;18.36;60.96
64876;BME280;51369;49.862;9.908;2023-05-14T08:54:15;98296.19;;;18.30;60.67
64876;BME280;51369;49.862;9.908;2023-05-14T08:56:43;98301.38;;;18.21;60.33
64876;BME280;51369;49.862;9.908;2023-05-14T08:59:10;98302.81;;;18.14;60.22
64876;BME280;51369;49.862;9.908;2023-05-14T09:01:36;98298.16;;;18.04;60.45
64876;BME280;51369;49.862;9.908;2023-05-14T09:04:03;98299.69;;;17.95;60.88
64876;BME280;51369;49.862;9.908;2023-05-14T09:06:34;98297.75;;;17.84;60.83
64876;BME280;51369;49.862;9.908;2023-05-14T09:09:00;98296.34;;;17.79;61.32
64876;BME280;51369;49.862;9.908;2023-05-14T09:11:26;98291.13;;;17.76;61.53
64876;BME280;51369;49.862;9.908;2023-05-14T09:13:51;98291.13;;;17.76;61.82
64876;BME280;51369;49.862;9.908;2023-05-14T09:16:17;98297.34;;;17.78;61.27
64876;BME280;51369;49.862;9.908;2023-05-14T09:18:44;98290.66;;;17.82;61.77
64876;BME280;51369;49.862;9.908;2023-05-14T09:21:12;98292.06;;;17.87;61.77
64876;BME280;51369;49.862;9.908;2023-05-14T09:23:41;98288.66;;;17.97;61.25
64876;BME280;51369;49.862;9.908;2023-05-14T09:26:06;98283.38;;;18.06;61.00
64876;BME280;51369;49.862;9.908;2023-05-14T09:28:32;98280.84;;;18.16;61.10
64876;BME280;51369;49.862;9.908;2023-05-14T09:30:57;98284.09;;;18.21;59.89
64876;BME280;51369;49.862;9.908;2023-05-14T09:33:26;98289.47;;;18.23;59.39
64876;BME280;51369;49.862;9.908;2023-05-14T09:35:58;98285.72;;;18.24;59.97
64876;BME280;51369;49.862;9.908;2023-05-14T09:38:31;98283.22;;;18.20;59.46
64876;BME280;51369;49.862;9.908;2023-05-14T09:40:57;98292.19;;;18.23;59.79
64876;BME280;51369;49.862;9.908;2023-05-14T09:43:23;98288.81;;;18.19;60.10
64876;BME280;51369;49.862;9.908;2023-05-14T09:45:48;98288.06;;;18.17;60.29
64876;BME280;51369;49.862;9.908;2023-05-14T09:48:14;98290.03;;;18.15;60.13
64876;BME280;51369;49.862;9.908;2023-05-14T09:50:43;98292.56;;;18.05;59.82
64876;BME280;51369;49.862;9.908;2023-05-14T09:53:09;98291.06;;;18.01;60.27
64876;BME280;51369;49.862;9.908;2023-05-14T09:55:36;98288.78;;;17.95;59.87
64876;BME280;51369;49.862;9.908;2023-05-14T09:58:01;98291.75;;;17.92;59.67
64876;BME280;51369;49.862;9.908;2023-05-14T10:00:28;98283.88;;;17.87;59.58
64876;BME280;51369;49.862;9.908;2023-05-14T10:02:54;98286.94;;;17.83;58.94
64876;BME280;51369;49.862;9.908;2023-05-14T10:05:22;98286.19;;;17.81;60.31
64876;BME280;51369;49.862;9.908;2023-05-14T10:07:48;98283.56;;;17.79;60.44
64876;BME280;51369;49.862;9.908;2023-05-14T10:10:18;98285.44;;;17.79;59.66
64876;BME280;51369;49.862;9.908;2023-05-14T10:12:50;98280.19;;;17.76;59.54
64876;BME280;51369;49.862;9.908;2023-05-14T10:15:20;98284.25;;;17.70;58.96
64876;BME280;51369;49.862;9.908;2023-05-14T10:17:52;98284.66;;;17.64;58.91
64876;BME280;51369;49.862;9.908;2023-05-14T10:20:19;98281.38;;;17.59;59.49
64876;BME280;51369;49.862;9.908;2023-05-14T10:22:46;98287.94;;;17.56;60.36
64876;BME280;51369;49.862;9.908;2023-05-14T10:25:12;98276.16;;;17.56;60.83
64876;BME280;51369;49.862;9.908;2023-05-14T10:27:38;98284.22;;;17.57;60.63
64876;BME280;51369;49.862;9.908;2023-05-14T10:30:05;98272.31;;;17.58;59.72
64876;BME280;51369;49.862;9.908;2023-05-14T10:32:34;98271.88;;;17.65;60.66
64876;BME280;51369;49.862;9.908;2023-05-14T10:35:17;98268.50;;;17.74;60.45
64876;BME280;51369;49.862;9.908;2023-05-14T10:37:45;98273.06;;;17.86;60.47
64876;BME280;51369;49.862;9.908;2023-05-14T10:40:11;98271.50;;;17.95;60.26
64876;BME280;51369;49.862;9.908;2023-05-14T10:42:38;98263.63;;;18.03;59.89
64876;BME280;51369;49.862;9.908;2023-05-14T10:45:07;98265.03;;;18.08;59.27
64876;BME280;51369;49.862;9.908;2023-05-14T10:47:34;98268.28;;;18.13;59.45
64876;BME280;51369;49.862;9.908;2023-05-14T10:50:02;98261.72;;;18.16;58.80
64876;BME280;51369;49.862;9.908;2023-05-14T10:52:29;98261.38;;;18.20;58.39
64876;BME280;51369;49.862;9.908;2023-05-14T10:55:00;98262.00;;;18.24;58.79
64876;BME280;51369;49.862;9.908;2023-05-14T10:57:29;98265.16;;;18.31;58.41
64876;BME280;51369;49.862;9.908;2023-05-14T10:59:57;98261.84;;;18.38;58.52
64876;BME280;51369;49.862;9.908;2023-05-14T11:04:56;98259.03;;;18.51;58.37
64876;BME280;51369;49.862;9.908;2023-05-14T11:07:35;98248.50;;;18.58;58.52
64876;BME280;51369;49.862;9.908;2023-05-14T11:12:38;98247.88;;;18.78;58.22
64876;BME280;51369;49.862;9.908;2023-05-14T11:15:06;98241.56;;;18.89;57.31
64876;BME280;51369;49.862;9.908;2023-05-14T11:17:33;98246.28;;;18.98;56.95
64876;BME280;51369;49.862;9.908;2023-05-14T11:19:59;98240.94;;;19.07;56.55
64876;BME280;51369;49.862;9.908;2023-05-14T11:22:25;98233.38;;;19.22;57.01
64876;BME280;51369;49.862;9.908;2023-05-14T11:24:50;98226.66;;;19.37;56.62
64876;BME280;51369;49.862;9.908;2023-05-14T11:27:17;98230.41;;;19.47;55.74
64876;BME280;51369;49.862;9.908;2023-05-14T11:29:43;98234.75;;;19.50;55.30
64876;BME280;51369;49.862;9.908;2023-05-14T11:32:10;98229.06;;;19.53;54.69
64876;BME280;51369;49.862;9.908;2023-05-14T11:34:36;98219.84;;;19.54;54.85
64876;BME280;51369;49.862;9.908;2023-05-14T11:37:08;98214.50;;;19.64;54.42
64876;BME280;51369;49.862;9.908;2023-05-14T11:39:35;98215.56;;;19.95;54.97
64876;BME280;51369;49.862;9.908;2023-05-14T11:42:09;98213.59;;;20.29;54.61
64876;BME280;51369;49.862;9.908;2023-05-14T11:44:40;98216.03;;;20.54;53.90
64876;BME280;51369;49.862;9.908;2023-05-14T11:47:05;98211.63;;;20.63;53.00
64876;BME280;51369;49.862;9.908;2023-05-14T11:49:31;98208.88;;;20.63;54.30
64876;BME280;51369;49.862;9.908;2023-05-14T11:52:01;98213.28;;;20.54;52.47
64876;BME280;51369;49.862;9.908;2023-05-14T11:54:27;98213.56;;;20.51;52.84
64876;BME280;51369;49.862;9.908;2023-05-14T11:56:54;98209.81;;;20.52;53.34
64876;BME280;51369;49.862;9.908;2023-05-14T11:59:22;98204.72;;;20.48;52.24
64876;BME280;51369;49.862;9.908;2023-05-14T12:01:48;98209.97;;;20.39;52.76
64876;BME280;51369;49.862;9.908;2023-05-14T12:04:13;98207.34;;;20.38;53.67
64876;BME280;51369;49.862;9.908;2023-05-14T12:06:39;98200.75;;;20.40;53.82
64876;BME280;51369;49.862;9.908;2023-05-14T12:09:05;98203.09;;;20.45;52.95
64876;BME280;51369;49.862;9.908;2023-05-14T12:11:31;98194.09;;;20.54;52.27
64876;BME280;51369;49.862;9.908;2023-05-14T12:13:58;98190.63;;;20.73;53.92
64876;BME280;51369;49.862;9.908;2023-05-14T12:16:29;98175.53;;;20.88;52.05
64876;BME280;51369;49.862;9.908;2023-05-14T12:18:58;98188.03;;;21.23;52.66
64876;BME280;51369;49.862;9.908;2023-05-14T12:21:26;98173.75;;;21.59;52.51
64876;BME280;51369;49.862;9.908;2023-05-14T12:23:57;98181.78;;;21.82;53.38
64876;BME280;51369;49.862;9.908;2023-05-14T12:26:26;98175.56;;;21.80;52.08
64876;BME280;51369;49.862;9.908;2023-05-14T12:28:58;98178.56;;;21.67;51.08
64876;BME280;51369;49.862;9.908;2023-05-14T12:31:30;98177.44;;;21.79;51.27
64876;BME280;51369;49.862;9.908;2023-05-14T12:33:56;98171.38;;;21.85;50.27
64876;BME280;51369;49.862;9.908;2023-05-14T12:36:22;98179.16;;;21.80;50.12
64876;BME280;51369;49.862;9.908;2023-05-14T12:38:49;98171.91;;;21.69;50.24
64876;BME280;51369;49.862;9.908;2023-05-14T12:41:16;98172.31;;;21.65;50.17
64876;BME280;51369;49.862;9.908;2023-05-14T12:43:42;98164.81;;;21.67;50.41
64876;BME280;51369;49.862;9.908;2023-05-14T12:46:08;98155.19;;;21.92;50.70
64876;BME280;51369;49.862;9.908;2023-05-14T12:48:34;98153.81;;;22.17;48.46
64876;BME280;51369;49.862;9.908;2023-05-14T12:51:00;98152.94;;;22.45;48.31
64876;BME280;51369;49.862;9.908;2023-05-14T12:53:25;98145.34;;;22.76;48.67
64876;BME280;51369;49.862;9.908;2023-05-14T12:55:51;98145.66;;;22.92;46.65
64876;BME280;51369;49.862;9.908;2023-05-14T12:58:17;98142.16;;;23.00;48.39
64876;BME280;51369;49.862;9.908;2023-05-14T13:00:42;98140.69;;;23.05;48.16
64876;BME280;51369;49.862;9.908;2023-05-14T13:03:08;98133.31;;;22.96;47.20
64876;BME280;51369;49.862;9.908;2023-05-14T13:05:33;98134.50;;;22.74;46.57